Emu Arrow — C6OR4 — position and weather

sailwx.info

Track history (hours):
 
Tides and Currents Weather Stations Pressure Air Temp Water Temp Dewpoint Dewpoint Depression Visibility Wind Speed Wind Dir Waves Ship Positions

Emu Arrow

Last reported at 2014-Jul-24 03:34 UTC. Time now 2014-Jul-24 03:52 UTC.
Position N 21°46' E 113°22'.

Length 200 m; draft 11.5 m.

Type: Cargo ship. MMSI: 309805000.

Date/timePositionNaut miles runAvg speedWind from/ knotsBaromVisibWave heightAir tempDewpointWater temp
2014-Jul-24 03:34N 21°46' E 113°22'1010.2
2014-Jul-24 02:33N 21°51' E 113°13'5 4.8
2014-Jul-24 01:30N 21°56' E 113°14'0 0.0
2014-Jul-24 00:30N 21°56' E 113°14'0 0.1
2014-Jul-23 23:30N 21°56' E 113°14'0 0.1
2014-Jul-23 22:30N 21°56' E 113°14'0 0.0
2014-Jul-23 21:30N 21°56' E 113°14'0 0.0
2014-Jul-23 20:30N 21°56' E 113°14'0 0.0
2014-Jul-23 19:24N 21°56' E 113°14'0 0.0
2014-Jul-23 18:30N 21°56' E 113°14'0 0.0
2014-Jul-23 17:30N 21°56' E 113°14'0 0.0
2014-Jul-23 16:30N 21°56' E 113°14'0 0.0
2014-Jul-23 15:24N 21°56' E 113°14'0 0.0
2014-Jul-23 14:24N 21°56' E 113°14'0 0.0
2014-Jul-23 13:18N 21°56' E 113°14'0 0.0
2014-Jul-23 11:24N 21°56' E 113°14'0 0.1
2014-Jul-23 10:24N 21°56' E 113°14'0 0.1
2014-Jul-23 09:30N 21°56' E 113°14'0 0.0
2014-Jul-23 08:18N 21°56' E 113°14'0 0.0
2014-Jul-23 07:30N 21°56' E 113°14'0 0.0
2014-Jul-23 06:30N 21°56' E 113°14'0 0.0
2014-Jul-23 05:24N 21°56' E 113°14'0 0.0
2014-Jul-23 04:30N 21°56' E 113°14'0 0.0
2014-Jul-23 03:18N 21°56' E 113°14'0 0.0
2014-Jul-23 02:24N 21°56' E 113°14'0 0.0
2014-Jul-23 01:30N 21°56' E 113°14'0 0.0
2014-Jul-23 00:30N 21°56' E 113°14'0 0.0
2014-Jul-22 23:30N 21°56' E 113°14'3 3.7
2014-Jul-22 22:33N 21°53' E 113°13'6 6.1
2014-Jul-22 21:33N 21°47' E 113°14'7 6.1
2014-Jul-22 20:29N 21°41' E 113°17'24 4.9
2014-Jul-22 15:33N 21°17' E 113°19'1410.2
2014-Jul-22 14:09N 21°03' E 113°17'  
2014-Jul-17 14:33N 01°15' E 103°58'2 2.0
2014-Jul-17 13:29N 01°17' E 103°57'0 0.1
2014-Jul-17 12:32N 01°17' E 103°57'0 0.1
2014-Jul-17 11:29N 01°17' E 103°57'0 0.0
2014-Jul-17 10:32N 01°17' E 103°57'0 0.0
2014-Jul-17 09:32N 01°17' E 103°57'0 0.1
2014-Jul-17 08:32N 01°17' E 103°57'0 0.0
2014-Jul-17 07:20N 01°17' E 103°57'0 0.1
2014-Jul-17 06:32N 01°17' E 103°57'0 0.1
2014-Jul-17 05:32N 01°17' E 103°57'0 0.0
2014-Jul-17 04:32N 01°17' E 103°57'0 0.0
2014-Jul-17 03:32N 01°17' E 103°57'0 0.0
2014-Jul-17 02:32N 01°17' E 103°57'0 0.0
2014-Jul-17 01:32N 01°17' E 103°57'0 0.0
2014-Jul-17 00:32N 01°17' E 103°57'0 0.0
2014-Jul-16 23:32N 01°17' E 103°57'0 0.0
2014-Jul-16 22:32N 01°17' E 103°57'2 1.8
2014-Jul-16 21:33N 01°16' E 103°59'3 2.9
2014-Jul-16 20:33N 01°14' E 103°57'4 3.9
2014-Jul-16 19:34N 01°12' E 103°53'6 5.8
2014-Jul-16 18:33N 01°09' E 103°48'  
Track history (hours):
 
Tides and Currents Weather Stations Pressure Air Temp Water Temp Dewpoint Dewpoint Depression Visibility Wind Speed Wind Dir Waves Ship Positions

Emu Arrow

Last reported at 2014-Jul-24 03:34 UTC. Time now 2014-Jul-24 03:52 UTC.
Position N 21°46' E 113°22'.

Length 200 m; draft 11.5 m.

Type: Cargo ship. MMSI: 309805000.

Date/timePositionNaut miles runAvg speedWind from/ knotsBaromVisibWave heightAir tempDewpointWater temp
2014-Jul-24 03:34N 21°46' E 113°22'1010.2
2014-Jul-24 02:33N 21°51' E 113°13'5 4.8
2014-Jul-24 01:30N 21°56' E 113°14'0 0.0
2014-Jul-24 00:30N 21°56' E 113°14'0 0.1
2014-Jul-23 23:30N 21°56' E 113°14'0 0.1
2014-Jul-23 22:30N 21°56' E 113°14'0 0.0
2014-Jul-23 21:30N 21°56' E 113°14'0 0.0
2014-Jul-23 20:30N 21°56' E 113°14'0 0.0
2014-Jul-23 19:24N 21°56' E 113°14'0 0.0
2014-Jul-23 18:30N 21°56' E 113°14'0 0.0
2014-Jul-23 17:30N 21°56' E 113°14'0 0.0
2014-Jul-23 16:30N 21°56' E 113°14'0 0.0
2014-Jul-23 15:24N 21°56' E 113°14'0 0.0
2014-Jul-23 14:24N 21°56' E 113°14'0 0.0
2014-Jul-23 13:18N 21°56' E 113°14'0 0.0
2014-Jul-23 11:24N 21°56' E 113°14'0 0.1
2014-Jul-23 10:24N 21°56' E 113°14'0 0.1
2014-Jul-23 09:30N 21°56' E 113°14'0 0.0
2014-Jul-23 08:18N 21°56' E 113°14'0 0.0
2014-Jul-23 07:30N 21°56' E 113°14'0 0.0
2014-Jul-23 06:30N 21°56' E 113°14'0 0.0
2014-Jul-23 05:24N 21°56' E 113°14'0 0.0
2014-Jul-23 04:30N 21°56' E 113°14'0 0.0
2014-Jul-23 03:18N 21°56' E 113°14'0 0.0
2014-Jul-23 02:24N 21°56' E 113°14'0 0.0
2014-Jul-23 01:30N 21°56' E 113°14'0 0.0
2014-Jul-23 00:30N 21°56' E 113°14'0 0.0
2014-Jul-22 23:30N 21°56' E 113°14'3 3.7
2014-Jul-22 22:33N 21°53' E 113°13'6 6.1
2014-Jul-22 21:33N 21°47' E 113°14'7 6.1
2014-Jul-22 20:29N 21°41' E 113°17'24 4.9
2014-Jul-22 15:33N 21°17' E 113°19'1410.2
2014-Jul-22 14:09N 21°03' E 113°17'  
2014-Jul-17 14:33N 01°15' E 103°58'2 2.0
2014-Jul-17 13:29N 01°17' E 103°57'0 0.1
2014-Jul-17 12:32N 01°17' E 103°57'0 0.1
2014-Jul-17 11:29N 01°17' E 103°57'0 0.0
2014-Jul-17 10:32N 01°17' E 103°57'0 0.0
2014-Jul-17 09:32N 01°17' E 103°57'0 0.1
2014-Jul-17 08:32N 01°17' E 103°57'0 0.0
2014-Jul-17 07:20N 01°17' E 103°57'0 0.1
2014-Jul-17 06:32N 01°17' E 103°57'0 0.1
2014-Jul-17 05:32N 01°17' E 103°57'0 0.0
2014-Jul-17 04:32N 01°17' E 103°57'0 0.0
2014-Jul-17 03:32N 01°17' E 103°57'0 0.0
2014-Jul-17 02:32N 01°17' E 103°57'0 0.0
2014-Jul-17 01:32N 01°17' E 103°57'0 0.0
2014-Jul-17 00:32N 01°17' E 103°57'0 0.0
2014-Jul-16 23:32N 01°17' E 103°57'0 0.0
2014-Jul-16 22:32N 01°17' E 103°57'2 1.8
2014-Jul-16 21:33N 01°16' E 103°59'3 2.9
2014-Jul-16 20:33N 01°14' E 103°57'4 3.9
2014-Jul-16 19:34N 01°12' E 103°53'6 5.8
2014-Jul-16 18:33N 01°09' E 103°48'  

Dump ship's entire track history